This is the latest recevied weather packets stored in our database for station/object KJ4AJP. If no packets are shown the sender has not sent any weather packets the latest 10 day(s).
| Time | Temp. | Humidity | Pressure | Rain* | Wind** | Luminosity | Snow |
|---|---|---|---|---|---|---|---|
| 1777927272 | 27.22° C | 35% | 1009 hPa | 0 mm | - | 549 W/m² | - |
| 1777926971 | 27.78° C | 34% | 1009.1 hPa | 0 mm | - | 563 W/m² | - |
| 1777926668 | 27.78° C | 34% | 1009.3 hPa | 0 mm | - | 563 W/m² | - |
| 1777926362 | 27.78° C | 37% | 1009.1 hPa | 0 mm | - | 594 W/m² | - |
| 1777925716 | 27.78° C | 35% | 1009.5 hPa | 0 mm | - | 632 W/m² | - |
| 1777925414 | 27.78° C | 35% | 1009.5 hPa | 0 mm | - | 632 W/m² | - |
| 1777925110 | 27.78° C | 38% | 1009.4 hPa | 0 mm | - | 645 W/m² | - |
| 1777924807 | 27.78° C | 36% | 1009.6 hPa | 0 mm | - | 663 W/m² | - |
| 1777924503 | 27.22° C | 36% | 1009.5 hPa | 0 mm | - | 672 W/m² | - |
| 1777924199 | 27.78° C | 36% | 1009.6 hPa | 0 mm | - | 690 W/m² | - |
| 1777923895 | 27.78° C | 38% | 1009.7 hPa | 0 mm | - | 316 W/m² | - |
| 1777923591 | 27.78° C | 36% | 1009.9 hPa | 0 mm | - | 700 W/m² | - |
| 1777923289 | 27.22° C | 35% | 1009.9 hPa | 0 mm | - | 712 W/m² | - |
| 1777922987 | 27.22° C | 36% | 1009.8 hPa | 0 mm | - | 721 W/m² | - |
| 1777922684 | 27.22° C | 35% | 1009.9 hPa | 0 mm | - | 727 W/m² | - |
| 1777922383 | 27.22° C | 38% | 1010 hPa | 0 mm | - | 731 W/m² | - |
| 1777922081 | 27.78° C | 35% | 1010.1 hPa | 0 mm | - | 745 W/m² | - |
| 1777921775 | 27.22° C | 38% | 1010.1 hPa | 0 mm | - | 752 W/m² | - |
| 1777921471 | 27.22° C | 36% | 1010 hPa | 0 mm | - | 761 W/m² | - |
| 1777921168 | 27.22° C | 35% | 1010.4 hPa | 0 mm | - | 759 W/m² | - |
| 1777920866 | 27.22° C | 36% | 1010.3 hPa | 0 mm | - | 766 W/m² | - |
| 1777920561 | 27.22° C | 37% | 1010.3 hPa | 0 mm | - | 768 W/m² | - |
| 1777920257 | 26.67° C | 37% | 1010.4 hPa | 0 mm | - | 769 W/m² | - |
| 1777919954 | 26.67° C | 38% | 1010.4 hPa | 0 mm | - | 784 W/m² | - |
| 1777919651 | 26.67° C | 37% | 1010.6 hPa | 0 mm | - | 787 W/m² | - |
* Rain latest hour (hover to see other rain measurements)
** Current wind speed in m/s (hover to see current wind gust speed)